Language: 


Des rapports , des résumés tant et plus, au choix de chacun....


Données statistiques de la station
Quotidien Rapport Mars 6, 2017 Unités:  Métrique    Anglais   les deux
« Précédent Jour
Suivant Jour »
Quotidien Hebdomadaire Mensuel Annuel Actuel
  Haut: Bas: Moyen:
Température: 12.1 °C 5.8 °C 7.6 °C
Pt de rosée: 7.1 °C 3.3 °C 5.3 °C
Humidité: 98 % 63 % 86 %
Vitesse du vent: 30.6 km/h 0.0 km/h 9.6 km/h
Rafales: 41.7 km/h - -
Vent:- - West
Pression: 1010.0 hPa 0.0 hPa -
Précipitation: 2.5 mm    
Historical Graphs
 
 
Données statistiques pour Mars 6, 2017
Heure Température Point de rosée Pression Vent Vitesse du vent Refales Humidité Pluie (taux horaire)
00:04 6.8 °C 6.4 °C 996.2 hPa WSW 14.0 km/h 15.8 km/h 98 % 0.3 mm
00:09 6.8 °C 6.6 °C 996.2 hPa West 14.0 km/h 16.3 km/h 98 % 0.3 mm
00:14 6.9 °C 6.7 °C 996.2 hPa West 14.0 km/h 18.0 km/h 98 % 0.8 mm
00:19 7.1 °C 6.8 °C 996.2 hPa WSW 12.6 km/h 18.0 km/h 98 % 0.8 mm
00:24 7.2 °C 6.8 °C 996.8 hPa WSW 15.8 km/h 20.1 km/h 98 % 0.8 mm
00:29 7.2 °C 6.8 °C 996.8 hPa WSW 13.7 km/h 20.9 km/h 98 % 0.8 mm
00:34 7.2 °C 6.8 °C 996.8 hPa West 16.9 km/h 21.2 km/h 98 % 0.3 mm
00:39 7.3 °C 6.9 °C 996.8 hPa WSW 17.7 km/h 23.8 km/h 98 % 0.3 mm
00:44 7.3 °C 6.9 °C 996.8 hPa West 12.6 km/h 28.0 km/h 98 % 0.3 mm
00:49 7.3 °C 6.8 °C 996.8 hPa West 30.6 km/h 30.6 km/h 97 % 0.5 mm
00:54 7.2 °C 6.7 °C 996.8 hPa West 21.2 km/h 30.6 km/h 97 % 0.8 mm
00:59 7.3 °C 6.8 °C 996.8 hPa WSW 13.7 km/h 30.6 km/h 97 % 0.8 mm
01:04 7.2 °C 6.7 °C 996.8 hPa WSW 17.2 km/h 22.4 km/h 97 % 0.8 mm
01:09 7.2 °C 6.7 °C 996.8 hPa WSW 19.1 km/h 20.6 km/h 97 % 0.8 mm
01:14 7.1 °C 6.6 °C 996.8 hPa WSW 24.8 km/h 24.8 km/h 97 % 0.5 mm
01:19 7.1 °C 6.6 °C 996.8 hPa WSW 24.5 km/h 25.9 km/h 97 % 0.5 mm
01:24 6.9 °C 6.5 °C 996.8 hPa West 29.1 km/h 31.4 km/h 97 % 0.8 mm
01:29 6.9 °C 6.5 °C 996.8 hPa WSW 22.4 km/h 31.4 km/h 97 % 0.8 mm
01:34 6.9 °C 6.5 °C 996.8 hPa WSW 21.2 km/h 30.9 km/h 97 % 0.8 mm
01:39 6.9 °C 6.5 °C 996.8 hPa WSW 25.3 km/h 28.0 km/h 97 % 0.8 mm
01:44 6.9 °C 6.5 °C 996.8 hPa West 19.1 km/h 39.6 km/h 97 % 1.0 mm
01:49 6.8 °C 6.4 °C 996.8 hPa West 16.3 km/h 39.6 km/h 97 % 0.8 mm
01:54 6.8 °C 6.4 °C 996.2 hPa West 16.6 km/h 23.3 km/h 97 % 0.8 mm
01:59 6.8 °C 6.4 °C 996.2 hPa WSW 19.1 km/h 24.5 km/h 97 % 0.8 mm
02:04 6.8 °C 6.4 °C 996.2 hPa West 17.7 km/h 24.8 km/h 97 % 1.0 mm
02:09 6.8 °C 6.4 °C 996.8 hPa West 20.9 km/h 24.8 km/h 97 % 1.0 mm
02:14 6.8 °C 6.4 °C 996.8 hPa WSW 16.3 km/h 27.0 km/h 97 % 1.0 mm
02:19 6.8 °C 6.4 °C 996.8 hPa WSW 21.2 km/h 27.0 km/h 97 % 1.0 mm
02:24 6.8 °C 6.3 °C 996.8 hPa West 14.0 km/h 21.9 km/h 97 % 0.8 mm
02:29 6.8 °C 6.3 °C 996.8 hPa West 13.0 km/h 21.2 km/h 97 % 0.8 mm
02:35 6.8 °C 6.3 °C 996.8 hPa West 15.8 km/h 21.9 km/h 97 % 0.8 mm
02:40 6.8 °C 6.3 °C 996.8 hPa West 16.9 km/h 21.9 km/h 97 % 0.8 mm
02:45 6.8 °C 6.3 °C 996.8 hPa West 12.2 km/h 21.2 km/h 97 % 0.3 mm
02:50 6.8 °C 6.3 °C 996.8 hPa West 11.9 km/h 25.3 km/h 97 % 0.3 mm
02:55 6.8 °C 6.3 °C 996.8 hPa West 19.1 km/h 25.3 km/h 97 % 0.3 mm
03:00 6.8 °C 6.3 °C 996.8 hPa West 12.2 km/h 29.1 km/h 97 % 0.3 mm
03:06 6.8 °C 6.2 °C 0.0 hPa WNW 17.7 km/h 29.1 km/h 96 % 0.0 mm
03:11 6.7 °C 6.1 °C 996.8 hPa West 9.3 km/h 24.5 km/h 96 % 0.0 mm
03:16 6.7 °C 5.9 °C 996.8 hPa NW 14.8 km/h 41.7 km/h 95 % 0.0 mm
03:21 6.4 °C 5.7 °C 996.8 hPa WNW 21.6 km/h 41.7 km/h 95 % 0.0 mm
03:26 6.4 °C 5.7 °C 997.9 hPa WNW 20.1 km/h 21.6 km/h 95 % 0.0 mm
03:31 6.4 °C 5.6 °C 997.9 hPa West 16.3 km/h 21.6 km/h 95 % 0.0 mm
03:36 6.3 °C 5.6 °C 997.9 hPa West 5.0 km/h 20.1 km/h 95 % 0.0 mm
03:41 6.3 °C 5.6 °C 997.9 hPa WSW 9.7 km/h 19.5 km/h 95 % 0.3 mm
03:46 6.3 °C 5.6 °C 997.9 hPa WNW 16.6 km/h 24.5 km/h 95 % 0.3 mm
03:51 6.2 °C 5.4 °C 997.9 hPa WSW 12.6 km/h 24.5 km/h 95 % 0.3 mm
03:52 6.2 °C 5.4 °C 997.9 hPa WSW 6.1 km/h 24.5 km/h 95 % 0.3 mm
03:57 6.1 °C 5.3 °C 997.9 hPa WSW 9.7 km/h 20.9 km/h 95 % 0.3 mm
04:02 6.1 °C 5.3 °C 997.9 hPa WNW 10.8 km/h 24.5 km/h 95 % 0.3 mm
04:07 6.0 °C 5.4 °C 997.9 hPa SSW 12.6 km/h 24.5 km/h 96 % 0.3 mm
04:12 6.0 °C 5.4 °C 997.9 hPa West 19.1 km/h 28.5 km/h 96 % 0.3 mm
04:17 6.0 °C 5.4 °C 997.9 hPa WSW 13.0 km/h 28.5 km/h 96 % 0.3 mm
04:22 6.0 °C 5.4 °C 998.9 hPa West 20.1 km/h 23.3 km/h 96 % 0.3 mm
04:27 6.0 °C 5.4 °C 998.9 hPa ESE 7.6 km/h 23.3 km/h 96 % 0.3 mm
04:32 5.9 °C 5.3 °C 998.9 hPa WSW 19.5 km/h 23.3 km/h 96 % 0.3 mm
04:37 5.9 °C 5.3 °C 998.9 hPa WSW 8.7 km/h 20.1 km/h 96 % 0.3 mm
04:42 5.9 °C 5.3 °C 998.9 hPa West 12.2 km/h 19.5 km/h 96 % 0.0 mm
04:47 5.9 °C 5.3 °C 998.9 hPa WSW 10.5 km/h 14.0 km/h 96 % 0.0 mm
04:52 5.9 °C 5.4 °C 998.9 hPa West 8.7 km/h 16.6 km/h 97 % 0.0 mm
04:57 5.9 °C 5.4 °C 998.9 hPa WSW 15.8 km/h 16.6 km/h 97 % 0.0 mm
05:02 5.8 °C 5.3 °C 998.9 hPa WSW 11.6 km/h 15.8 km/h 97 % 0.0 mm
05:07 5.8 °C 5.3 °C 998.9 hPa West 6.1 km/h 14.0 km/h 97 % 0.0 mm
05:12 5.8 °C 5.5 °C 998.9 hPa WSW 6.1 km/h 14.0 km/h 98 % 0.0 mm
05:17 5.8 °C 5.5 °C 998.9 hPa WSW 8.7 km/h 12.6 km/h 98 % 0.3 mm
05:22 5.8 °C 5.5 °C 998.9 hPa Calm   11.6 km/h 98 % 0.3 mm
05:27 5.8 °C 5.5 °C 998.9 hPa Calm   11.6 km/h 98 % 0.3 mm
05:32 5.8 °C 5.5 °C 998.9 hPa WNW 3.2 km/h 6.9 km/h 98 % 0.3 mm
05:37 5.8 °C 5.5 °C 998.9 hPa Calm   3.5 km/h 98 % 0.3 mm
05:42 5.8 °C 5.5 °C 998.9 hPa NW 8.7 km/h 8.7 km/h 98 % 0.3 mm
05:47 5.8 °C 5.5 °C 998.9 hPa WSW 4.3 km/h 12.2 km/h 98 % 0.3 mm
05:52 5.9 °C 5.6 °C 998.9 hPa West 8.7 km/h 16.9 km/h 98 % 0.3 mm
05:57 6.0 °C 5.7 °C 998.9 hPa WSW 6.4 km/h 16.9 km/h 98 % 0.3 mm
06:02 6.0 °C 5.7 °C 998.9 hPa West 12.6 km/h 19.5 km/h 98 % 0.3 mm
06:07 6.1 °C 5.8 °C 998.9 hPa WSW 16.3 km/h 22.4 km/h 98 % 0.3 mm
06:12 6.2 °C 5.9 °C 998.9 hPa West 12.6 km/h 22.4 km/h 98 % 0.3 mm
06:17 6.3 °C 6.0 °C 998.9 hPa West 12.6 km/h 22.7 km/h 98 % 0.0 mm
06:22 6.3 °C 6.0 °C 998.9 hPa WNW 16.3 km/h 29.1 km/h 98 % 0.0 mm
06:27 6.3 °C 6.0 °C 998.9 hPa WSW 17.2 km/h 29.1 km/h 98 % 0.0 mm
06:32 6.3 °C 5.8 °C 998.9 hPa West 17.2 km/h 24.5 km/h 97 % 0.0 mm
06:37 6.3 °C 5.7 °C 998.9 hPa West 16.6 km/h 24.5 km/h 96 % 0.0 mm
06:42 6.3 °C 5.7 °C 998.9 hPa West 20.1 km/h 24.5 km/h 96 % 0.0 mm
06:47 6.3 °C 5.6 °C 998.9 hPa WSW 19.5 km/h 29.1 km/h 95 % 0.0 mm
06:52 6.4 °C 5.6 °C 998.9 hPa West 17.7 km/h 29.1 km/h 95 % 0.0 mm
06:57 6.4 °C 5.6 °C 998.9 hPa West 16.6 km/h 20.6 km/h 95 % 0.0 mm
07:02 6.4 °C 5.6 °C 998.9 hPa WNW 15.4 km/h 20.1 km/h 95 % 0.0 mm
07:07 6.4 °C 5.6 °C 997.9 hPa West 20.9 km/h 20.9 km/h 95 % 0.0 mm
07:12 6.4 °C 5.5 °C 997.9 hPa West 15.8 km/h 20.9 km/h 94 % 0.0 mm
07:17 6.4 °C 5.5 °C 997.9 hPa WSW 16.6 km/h 21.2 km/h 94 % 0.0 mm
07:22 6.4 °C 5.5 °C 998.9 hPa WSW 24.5 km/h 24.8 km/h 94 % 0.0 mm
07:27 6.4 °C 5.5 °C 998.9 hPa WSW 21.6 km/h 24.8 km/h 94 % 0.0 mm
07:32 6.4 °C 5.3 °C 998.9 hPa West 20.9 km/h 24.5 km/h 93 % 0.0 mm
07:37 6.4 °C 5.4 °C 998.9 hPa WSW 13.0 km/h 21.9 km/h 93 % 0.0 mm
07:42 6.4 °C 5.3 °C 998.9 hPa WSW 16.3 km/h 20.9 km/h 93 % 0.0 mm
07:47 6.4 °C 5.3 °C 998.9 hPa West 15.8 km/h 27.4 km/h 92 % 0.0 mm
07:52 6.4 °C 5.3 °C 998.9 hPa West 16.9 km/h 27.4 km/h 92 % 0.0 mm
07:57 6.4 °C 5.2 °C 998.9 hPa WSW 9.3 km/h 19.8 km/h 92 % 0.0 mm
08:02 6.4 °C 5.2 °C 998.9 hPa West 13.0 km/h 17.2 km/h 92 % 0.0 mm
08:07 6.4 °C 5.2 °C 998.9 hPa West 8.7 km/h 15.8 km/h 92 % 0.0 mm
08:12 6.3 °C 5.1 °C 998.9 hPa West 7.6 km/h 15.8 km/h 92 % 0.0 mm
08:17 6.3 °C 5.1 °C 998.9 hPa West 9.7 km/h 13.0 km/h 92 % 0.0 mm
08:22 6.3 °C 5.1 °C 998.9 hPa WSW 9.7 km/h 13.7 km/h 92 % 0.0 mm
08:27 6.3 °C 5.1 °C 998.9 hPa WSW 10.1 km/h 13.7 km/h 92 % 0.0 mm
08:32 6.4 °C 5.4 °C 998.9 hPa West 8.7 km/h 11.6 km/h 93 % 0.0 mm
08:37 6.6 °C 5.5 °C 998.9 hPa WSW 10.5 km/h 13.0 km/h 93 % 0.0 mm
08:42 6.4 °C 5.3 °C 998.9 hPa WSW 9.7 km/h 13.0 km/h 92 % 0.0 mm
08:47 6.7 °C 5.4 °C 998.9 hPa WSW 6.9 km/h 12.6 km/h 92 % 0.0 mm
08:52 6.9 °C 5.7 °C 999.9 hPa West 10.5 km/h 16.6 km/h 92 % 0.0 mm
08:57 6.8 °C 5.7 °C 999.9 hPa West 12.6 km/h 16.6 km/h 92 % 0.0 mm
09:02 7.1 °C 5.7 °C 999.9 hPa WSW 9.7 km/h 14.8 km/h 91 % 0.0 mm
09:07 7.3 °C 5.9 °C 998.9 hPa WSW 12.2 km/h 16.9 km/h 91 % 0.0 mm
09:12 7.3 °C 6.0 °C 998.9 hPa West 12.2 km/h 16.9 km/h 91 % 0.0 mm
09:17 7.4 °C 5.9 °C 998.9 hPa WSW 17.2 km/h 17.2 km/h 90 % 0.0 mm
09:22 7.3 °C 5.7 °C 998.9 hPa West 16.6 km/h 17.2 km/h 89 % 0.0 mm
09:27 7.3 °C 5.5 °C 998.9 hPa WSW 13.0 km/h 16.6 km/h 88 % 0.0 mm
09:32 7.3 °C 5.5 °C 998.9 hPa WSW 8.7 km/h 16.6 km/h 88 % 0.0 mm
09:37 7.4 °C 5.8 °C 998.9 hPa WSW 4.7 km/h 13.0 km/h 89 % 0.0 mm
09:43 7.6 °C 5.8 °C 998.9 hPa WSW 10.8 km/h 13.0 km/h 89 % 0.0 mm
09:48 7.6 °C 5.8 °C 998.9 hPa West 8.7 km/h 14.0 km/h 89 % 0.0 mm
09:53 7.7 °C 5.9 °C 998.9 hPa WSW 12.2 km/h 14.0 km/h 89 % 0.0 mm
09:58 7.7 °C 5.9 °C 998.9 hPa West 11.1 km/h 13.7 km/h 89 % 0.0 mm
10:03 7.7 °C 5.8 °C 998.9 hPa WSW 8.7 km/h 16.3 km/h 88 % 0.0 mm
10:08 7.6 °C 5.5 °C 998.9 hPa West 16.6 km/h 16.6 km/h 87 % 0.0 mm
10:13 7.6 °C 5.5 °C 998.9 hPa West 13.0 km/h 16.6 km/h 87 % 0.0 mm
10:18 7.6 °C 5.3 °C 998.9 hPa WSW 15.8 km/h 16.6 km/h 86 % 0.0 mm
10:23 7.7 °C 5.4 °C 998.9 hPa WSW 10.5 km/h 15.8 km/h 86 % 0.0 mm
10:28 7.7 °C 5.7 °C 998.9 hPa West 13.7 km/h 17.7 km/h 87 % 0.0 mm
10:33 7.8 °C 5.7 °C 998.9 hPa WSW 9.7 km/h 17.7 km/h 86 % 0.0 mm
10:38 7.8 °C 5.7 °C 998.9 hPa WSW 13.0 km/h 14.0 km/h 86 % 0.0 mm
10:43 7.8 °C 5.7 °C 998.9 hPa WSW 14.0 km/h 15.8 km/h 86 % 0.0 mm
10:48 7.8 °C 5.7 °C 998.9 hPa WSW 13.0 km/h 15.8 km/h 86 % 0.0 mm
10:53 7.8 °C 5.5 °C 998.9 hPa WSW 6.1 km/h 15.8 km/h 85 % 0.0 mm
10:58 7.9 °C 5.6 °C 998.9 hPa West 13.7 km/h 15.8 km/h 85 % 0.0 mm
11:03 7.9 °C 5.6 °C 998.9 hPa WSW 13.7 km/h 15.1 km/h 85 % 0.0 mm
11:08 8.1 °C 5.7 °C 998.9 hPa WSW 15.8 km/h 16.9 km/h 85 % 0.0 mm
11:13 8.2 °C 5.8 °C 998.9 hPa WSW 12.2 km/h 16.9 km/h 85 % 0.0 mm
11:18 8.2 °C 5.7 °C 998.9 hPa West 13.0 km/h 17.7 km/h 84 % 0.0 mm
11:23 8.3 °C 5.8 °C 998.9 hPa WSW 13.0 km/h 17.7 km/h 84 % 0.0 mm
11:28 8.4 °C 5.7 °C 998.9 hPa West 14.8 km/h 19.5 km/h 83 % 0.0 mm
11:33 8.5 °C 5.8 °C 998.9 hPa West 12.2 km/h 19.5 km/h 83 % 0.0 mm
11:37 8.6 °C 5.7 °C 998.9 hPa West 8.7 km/h 16.6 km/h 82 % 0.0 mm
11:43 8.8 °C 5.9 °C 998.9 hPa WSW 10.1 km/h 16.6 km/h 82 % 0.0 mm
11:48 9.1 °C 6.0 °C 998.9 hPa West 9.3 km/h 16.9 km/h 81 % 0.0 mm
11:53 9.1 °C 5.8 °C 998.9 hPa West 4.7 km/h 16.9 km/h 80 % 0.0 mm
11:58 9.1 °C 5.7 °C 998.9 hPa WNW 8.7 km/h 15.4 km/h 79 % 0.0 mm
12:03 9.0 °C 5.4 °C 998.9 hPa West 10.1 km/h 16.3 km/h 78 % 0.0 mm
12:08 8.9 °C 5.3 °C 998.9 hPa West 9.0 km/h 16.3 km/h 78 % 0.0 mm
12:13 9.0 °C 5.6 °C 998.9 hPa NW 6.9 km/h 11.9 km/h 79 % 0.0 mm
12:18 9.4 °C 6.1 °C 998.9 hPa WNW 9.3 km/h 13.7 km/h 80 % 0.0 mm
12:23 10.2 °C 7.1 °C 999.9 hPa West 6.1 km/h 14.0 km/h 81 % 0.0 mm
12:28 10.0 °C 6.2 °C 999.9 hPa WNW 4.7 km/h 14.0 km/h 77 % 0.0 mm
12:33 9.7 °C 5.5 °C 999.9 hPa WNW 10.1 km/h 15.8 km/h 75 % 0.0 mm
12:38 9.7 °C 5.7 °C 1000.9 hPa North 10.5 km/h 15.8 km/h 76 % 0.0 mm
12:43 10.5 °C 6.4 °C 1000.9 hPa SSW 6.9 km/h 14.0 km/h 76 % 0.0 mm
12:48 10.2 °C 5.2 °C 1000.9 hPa West 11.9 km/h 17.7 km/h 71 % 0.0 mm
12:53 10.0 °C 5.2 °C 1000.9 hPa NE 4.7 km/h 17.7 km/h 72 % 0.0 mm
12:58 10.5 °C 5.7 °C 1000.9 hPa West 1.4 km/h 12.2 km/h 72 % 0.0 mm
13:03 11.2 °C 6.7 °C 1000.9 hPa NE 11.6 km/h 11.9 km/h 74 % 0.0 mm
13:08 11.4 °C 6.4 °C 1000.9 hPa West 17.2 km/h 18.3 km/h 71 % 0.0 mm
13:13 11.3 °C 6.0 °C 1000.9 hPa WNW 9.0 km/h 18.3 km/h 70 % 0.0 mm
13:18 11.0 °C 5.5 °C 1000.9 hPa WSW 8.7 km/h 13.7 km/h 69 % 0.0 mm
13:23 11.1 °C 5.6 °C 1000.9 hPa WNW 13.0 km/h 16.6 km/h 69 % 0.0 mm
13:28 10.8 °C 5.1 °C 1000.9 hPa NW 8.7 km/h 16.9 km/h 68 % 0.0 mm
13:33 10.5 °C 4.6 °C 1000.9 hPa NW 10.1 km/h 16.9 km/h 67 % 0.0 mm
13:38 10.3 °C 4.6 °C 1000.9 hPa WNW 4.7 km/h 15.1 km/h 68 % 0.0 mm
13:43 10.4 °C 5.2 °C 1000.9 hPa NW 1.4 km/h 15.1 km/h 70 % 0.0 mm
13:48 10.7 °C 5.4 °C 1000.9 hPa North 10.1 km/h 12.6 km/h 70 % 0.0 mm
13:53 11.4 °C 5.9 °C 1000.9 hPa NNW 10.1 km/h 16.3 km/h 69 % 0.0 mm
13:58 11.8 °C 5.9 °C 1000.9 hPa NNW 10.5 km/h 18.0 km/h 67 % 0.0 mm
14:03 11.4 °C 5.0 °C 1000.9 hPa North 10.8 km/h 19.8 km/h 65 % 0.0 mm
14:08 11.2 °C 4.6 °C 1000.9 hPa North 1.4 km/h 19.8 km/h 64 % 0.0 mm
14:13 11.7 °C 5.5 °C 1000.9 hPa West 2.1 km/h 18.3 km/h 66 % 0.0 mm
14:18 12.1 °C 5.4 °C 1000.9 hPa WNW 12.6 km/h 17.2 km/h 64 % 0.0 mm
14:23 11.8 °C 5.1 °C 1000.9 hPa NW 15.4 km/h 17.2 km/h 63 % 0.0 mm
14:28 11.2 °C 5.1 °C 1000.9 hPa North 13.7 km/h 17.2 km/h 66 % 0.0 mm
14:33 10.9 °C 4.8 °C 1000.9 hPa North 9.3 km/h 20.9 km/h 66 % 0.0 mm
14:38 10.6 °C 4.7 °C 1001.9 hPa North 9.7 km/h 20.9 km/h 67 % 0.0 mm
14:43 10.1 °C 4.4 °C 1001.9 hPa West 11.6 km/h 22.7 km/h 68 % 0.0 mm
14:45 10.0 °C 4.3 °C 1001.9 hPa NNW 12.6 km/h 22.7 km/h 68 % 0.0 mm
14:50 9.9 °C 4.4 °C 1001.9 hPa NNW 12.2 km/h 19.1 km/h 69 % 0.0 mm
14:55 9.9 °C 4.7 °C 1001.9 hPa North 9.7 km/h 17.7 km/h 70 % 0.0 mm
15:00 9.6 °C 4.6 °C 1001.9 hPa NNW 12.2 km/h 20.9 km/h 71 % 0.0 mm
15:05 9.4 °C 4.6 °C 1001.9 hPa NNW 9.3 km/h 20.9 km/h 72 % 0.0 mm
15:10 9.2 °C 4.6 °C 1001.9 hPa West 9.3 km/h 14.3 km/h 73 % 0.0 mm
15:15 9.0 °C 4.6 °C 1001.9 hPa NNW 12.2 km/h 14.3 km/h 74 % 0.0 mm
15:20 9.2 °C 5.0 °C 1001.9 hPa Calm   17.7 km/h 75 % 0.0 mm
15:25 9.1 °C 4.9 °C 1002.9 hPa NNW 9.0 km/h 17.7 km/h 75 % 0.0 mm
15:30 9.1 °C 4.9 °C 1002.9 hPa North 11.9 km/h 15.4 km/h 75 % 0.0 mm
15:35 9.8 °C 5.8 °C 1002.9 hPa NW 10.1 km/h 16.9 km/h 76 % 0.0 mm
15:40 9.7 °C 5.5 °C 1002.9 hPa North 5.8 km/h 16.9 km/h 75 % 0.0 mm
15:45 9.6 °C 5.4 °C 1002.9 hPa WNW 7.6 km/h 16.9 km/h 75 % 0.0 mm
15:50 9.5 °C 5.3 °C 1002.9 hPa North 5.5 km/h 15.4 km/h 75 % 0.0 mm
15:55 9.3 °C 4.9 °C 1002.9 hPa North 5.0 km/h 16.6 km/h 74 % 0.0 mm
16:00 9.2 °C 4.8 °C 1002.9 hPa NW 10.1 km/h 16.6 km/h 74 % 0.0 mm
16:05 9.2 °C 4.6 °C 1002.9 hPa NW 12.2 km/h 16.3 km/h 73 % 0.0 mm
16:10 9.4 °C 4.8 °C 1002.9 hPa NNW 8.7 km/h 16.3 km/h 73 % 0.0 mm
16:15 9.5 °C 4.9 °C 1002.9 hPa NW 14.0 km/h 17.2 km/h 73 % 0.0 mm
16:20 9.4 °C 4.8 °C 1002.9 hPa NNW 12.6 km/h 20.9 km/h 73 % 0.0 mm
16:25 9.2 °C 4.6 °C 1002.9 hPa West 6.1 km/h 20.9 km/h 73 % 0.0 mm
16:30 9.5 °C 5.1 °C 1002.9 hPa NW 7.9 km/h 14.0 km/h 74 % 0.0 mm
16:35 9.8 °C 5.2 °C 1002.9 hPa NNW 1.4 km/h 15.4 km/h 73 % 0.0 mm
16:40 9.8 °C 5.2 °C 1003.9 hPa WNW 7.9 km/h 16.3 km/h 73 % 0.0 mm
16:45 9.9 °C 5.1 °C 1003.9 hPa Calm   16.3 km/h 72 % 0.0 mm
16:50 9.9 °C 5.1 °C 1003.9 hPa North 5.0 km/h 15.4 km/h 72 % 0.0 mm
16:55 9.5 °C 4.5 °C 1005.0 hPa NW 10.8 km/h 18.0 km/h 71 % 0.0 mm
17:00 9.2 °C 4.0 °C 1005.0 hPa North 4.0 km/h 18.0 km/h 70 % 0.0 mm
17:01 9.2 °C 4.0 °C 1005.0 hPa NNW 6.9 km/h 18.0 km/h 70 % 0.0 mm
17:06 9.3 °C 4.3 °C 1005.0 hPa WNW 5.5 km/h 13.7 km/h 71 % 0.0 mm
17:11 9.3 °C 4.5 °C 1005.0 hPa North 9.3 km/h 13.0 km/h 72 % 0.0 mm
17:16 9.4 °C 4.6 °C 1005.0 hPa North 5.5 km/h 17.7 km/h 72 % 0.0 mm
17:21 9.5 °C 4.5 °C 1005.0 hPa North 5.8 km/h 17.7 km/h 71 % 0.0 mm
17:26 9.3 °C 4.3 °C 1005.0 hPa NNW 4.3 km/h 17.7 km/h 71 % 0.0 mm
17:31 9.1 °C 4.3 °C 1005.0 hPa Calm   10.5 km/h 72 % 0.0 mm
17:36 9.0 °C 4.2 °C 1005.0 hPa North 7.9 km/h 10.8 km/h 72 % 0.0 mm
17:41 9.0 °C 4.2 °C 1005.0 hPa West 5.5 km/h 11.6 km/h 72 % 0.0 mm
17:46 8.9 °C 4.3 °C 1005.0 hPa WNW 2.6 km/h 11.6 km/h 73 % 0.0 mm
17:51 8.8 °C 4.2 °C 1005.0 hPa West 5.5 km/h 16.6 km/h 73 % 0.0 mm
17:56 8.8 °C 4.4 °C 1005.0 hPa West 12.6 km/h 20.9 km/h 74 % 0.0 mm
18:01 8.7 °C 4.2 °C 1005.0 hPa WSW 12.2 km/h 20.9 km/h 73 % 0.0 mm
18:06 8.4 °C 3.9 °C 1005.0 hPa West 9.7 km/h 17.2 km/h 73 % 0.0 mm
18:11 8.3 °C 3.8 °C 1006.0 hPa West 15.4 km/h 16.9 km/h 73 % 0.0 mm
18:16 8.2 °C 3.7 °C 1006.0 hPa WSW 6.4 km/h 16.9 km/h 73 % 0.0 mm
18:21 8.1 °C 3.6 °C 1006.0 hPa WNW 6.4 km/h 14.0 km/h 73 % 0.0 mm
18:26 8.1 °C 3.5 °C 1006.0 hPa WNW 4.7 km/h 14.0 km/h 73 % 0.0 mm
18:31 7.8 °C 3.3 °C 1006.0 hPa West 3.5 km/h 10.1 km/h 73 % 0.0 mm
18:36 7.8 °C 3.5 °C 1006.0 hPa NNW 5.0 km/h 10.1 km/h 74 % 0.0 mm
18:41 7.8 °C 3.5 °C 1006.0 hPa WNW 7.9 km/h 10.1 km/h 74 % 0.0 mm
18:46 7.7 °C 3.6 °C 1006.0 hPa West 8.7 km/h 11.1 km/h 75 % 0.0 mm
18:51 7.7 °C 3.8 °C 1006.0 hPa Calm   13.0 km/h 76 % 0.0 mm
18:56 7.7 °C 3.9 °C 1007.0 hPa WNW 6.9 km/h 13.0 km/h 77 % 0.0 mm
19:01 7.6 °C 3.9 °C 1007.0 hPa NW 5.8 km/h 10.5 km/h 78 % 0.0 mm
19:06 7.6 °C 4.1 °C 1007.0 hPa West 7.6 km/h 14.0 km/h 79 % 0.0 mm
19:11 7.4 °C 4.2 °C 1007.0 hPa West 7.9 km/h 14.0 km/h 80 % 0.0 mm
19:16 7.3 °C 4.3 °C 1007.0 hPa West 6.1 km/h 11.9 km/h 81 % 0.0 mm
19:21 7.3 °C 4.4 °C 1007.0 hPa WSW 4.7 km/h 11.1 km/h 82 % 0.0 mm
19:26 7.2 °C 4.4 °C 1007.0 hPa West 3.2 km/h 10.5 km/h 83 % 0.0 mm
19:31 7.2 °C 4.4 °C 1007.0 hPa Calm   10.1 km/h 83 % 0.0 mm
19:36 6.9 °C 4.3 °C 1007.0 hPa West 3.2 km/h 9.0 km/h 83 % 0.0 mm
19:41 6.9 °C 4.4 °C 1006.0 hPa West 5.8 km/h 9.0 km/h 84 % 0.0 mm
19:46 6.8 °C 4.5 °C 1006.0 hPa Calm   7.9 km/h 85 % 0.0 mm
19:51 6.8 °C 4.5 °C 1006.0 hPa West 4.7 km/h 7.9 km/h 85 % 0.0 mm
19:56 6.8 °C 4.6 °C 1007.0 hPa Calm   7.9 km/h 86 % 0.0 mm
20:01 6.8 °C 4.6 °C 1007.0 hPa Calm   7.6 km/h 86 % 0.0 mm
20:06 6.7 °C 4.7 °C 1007.0 hPa Calm   6.9 km/h 87 % 0.0 mm
20:11 6.7 °C 4.7 °C 1007.0 hPa Calm   9.0 km/h 87 % 0.0 mm
20:16 6.7 °C 4.7 °C 1007.0 hPa Calm   9.0 km/h 87 % 0.0 mm
20:21 6.7 °C 4.7 °C 1007.0 hPa Calm   5.8 km/h 87 % 0.0 mm
20:26 6.7 °C 4.8 °C 1008.0 hPa WSW 6.4 km/h 6.4 km/h 88 % 0.0 mm
20:31 6.8 °C 4.9 °C 1008.0 hPa West 4.0 km/h 6.4 km/h 88 % 0.0 mm
20:36 6.8 °C 4.9 °C 1008.0 hPa Calm   6.9 km/h 88 % 0.0 mm
20:41 6.8 °C 4.9 °C 1008.0 hPa Calm   6.9 km/h 88 % 0.0 mm
20:46 6.8 °C 5.0 °C 1008.0 hPa West 1.4 km/h 6.9 km/h 88 % 0.0 mm
20:51 6.9 °C 5.3 °C 1008.0 hPa North 1.4 km/h 9.7 km/h 89 % 0.0 mm
20:56 7.2 °C 5.6 °C 1009.0 hPa WNW 5.0 km/h 14.0 km/h 90 % 0.3 mm
21:01 7.2 °C 5.4 °C 1009.0 hPa WNW 11.6 km/h 14.0 km/h 89 % 0.3 mm
21:06 7.2 °C 5.4 °C 1009.0 hPa West 6.1 km/h 11.6 km/h 89 % 0.3 mm
21:11 7.2 °C 5.4 °C 1009.0 hPa WSW 1.8 km/h 11.6 km/h 89 % 0.3 mm
21:16 7.2 °C 5.4 °C 1009.0 hPa Calm   7.6 km/h 89 % 0.3 mm
21:21 7.2 °C 5.4 °C 1009.0 hPa Calm   9.0 km/h 89 % 0.3 mm
21:26 7.1 °C 5.4 °C 1009.0 hPa Calm   9.0 km/h 89 % 0.3 mm
21:31 6.9 °C 5.3 °C 1009.0 hPa Calm   6.4 km/h 89 % 0.3 mm
21:36 6.9 °C 5.3 °C 1009.0 hPa North 7.9 km/h 9.3 km/h 89 % 0.3 mm
21:41 6.8 °C 5.2 °C 1009.0 hPa West 4.0 km/h 9.3 km/h 89 % 0.3 mm
21:46 6.8 °C 5.2 °C 1009.0 hPa West 5.0 km/h 7.9 km/h 89 % 0.3 mm
21:51 6.8 °C 5.1 °C 1009.0 hPa West 3.2 km/h 6.9 km/h 89 % 0.3 mm
21:57 6.7 °C 5.0 °C 1009.0 hPa Calm   6.9 km/h 89 % 0.0 mm
22:02 6.4 °C 4.6 °C 1009.0 hPa Calm   6.9 km/h 88 % 0.0 mm
22:07 6.4 °C 4.5 °C 1009.0 hPa Calm     88 % 0.0 mm
22:12 6.3 °C 4.6 °C 1008.0 hPa WSW 4.7 km/h 4.7 km/h 89 % 0.0 mm
22:17 6.2 °C 4.5 °C 1008.0 hPa WSW 6.9 km/h 7.6 km/h 89 % 0.0 mm
22:22 6.2 °C 4.5 °C 1008.0 hPa Calm   7.6 km/h 89 % 0.0 mm
22:27 6.2 °C 4.7 °C 1009.0 hPa West 2.1 km/h 6.1 km/h 90 % 0.0 mm
22:32 6.3 °C 4.8 °C 1009.0 hPa West 6.9 km/h 9.7 km/h 90 % 0.0 mm
22:37 6.3 °C 4.9 °C 1009.0 hPa Calm   9.7 km/h 91 % 0.0 mm
22:42 6.3 °C 4.9 °C 1009.0 hPa Calm   7.2 km/h 91 % 0.0 mm
22:44 6.3 °C 4.9 °C 1009.0 hPa Calm   6.1 km/h 91 % 0.0 mm
22:49 6.3 °C 4.9 °C 1009.0 hPa West 3.5 km/h 6.1 km/h 91 % 0.0 mm
22:54 6.4 °C 5.2 °C 1009.0 hPa WNW 3.2 km/h 6.1 km/h 92 % 0.0 mm
22:59 6.4 °C 5.3 °C 1009.0 hPa North 3.2 km/h 7.6 km/h 92 % 0.0 mm
23:05 6.6 °C 5.2 °C 1009.0 hPa Calm   7.6 km/h 91 % 0.0 mm
23:10 6.7 °C 5.3 °C 1009.0 hPa Calm   4.0 km/h 91 % 0.0 mm
23:15 6.7 °C 5.2 °C 1009.0 hPa Calm   2.1 km/h 90 % 0.0 mm
23:20 6.7 °C 5.2 °C 1009.0 hPa Calm   4.3 km/h 90 % 0.0 mm
23:25 6.7 °C 5.2 °C 1009.0 hPa Calm   4.3 km/h 90 % 0.0 mm
23:30 6.7 °C 5.2 °C 1009.0 hPa Calm   2.6 km/h 90 % 0.0 mm
23:35 6.6 °C 4.9 °C 1009.0 hPa Calm   2.6 km/h 89 % 0.0 mm
23:40 6.6 °C 4.9 °C 1010.0 hPa Calm     89 % 0.0 mm
23:45 6.4 °C 4.9 °C 1010.0 hPa Calm     90 % 0.0 mm
23:50 6.4 °C 4.8 °C 1010.0 hPa Calm     90 % 0.0 mm
23:55 6.4 °C 4.8 °C 1010.0 hPa Calm     90 % 0.0 mm
Le Gheer Warneton
Courtoisie de Weather Underground - 2.25 mb

Mise a jour : 17-12-17 08:59:12
Généré par Cumulus 1.9.4 (1099)